Time;durP1;ratioP1;P1;durP2;ratioP2;P2;SDS_P1;SDS_P2;PMS_P1;PMS_P2;Temp;Humidity;BMP_temperature;BMP_pressure;BME280_temperature;BME280_humidity;BME280_pressure;Samples;Min_cycle;Max_cycle;Signal;HPM_P1;HPM_P2
2024/02/13 22:01:51;;;;;;;2.23;1.90;;;;;;;;;;5155246;27;20201;-78
2024/02/13 22:04:19;;;;;;;2.30;2.03;;;;;;;;;;5156102;27;20282;-78
2024/02/13 22:06:55;;;;;;;4.00;2.83;;;;;;;;;;5156478;27;20195;-78
2024/02/13 22:09:22;;;;;;;2.10;1.63;;;;;;;;;;5156385;27;20191;-77
2024/02/13 22:11:49;;;;;;;1.97;1.57;;;;;;;;;;5156578;27;20206;-77
2024/02/13 22:14:17;;;;;;;3.50;2.10;;;;;;;;;;5155974;27;20665;-78
2024/02/13 22:16:50;;;;;;;4.90;2.80;;;;;;;;;;5156404;27;20195;-79
2024/02/13 22:19:18;;;;;;;2.67;1.73;;;;;;;;;;5155505;27;20194;-78
2024/02/13 22:21:48;;;;;;;2.80;2.07;;;;;;;;;;5155856;27;20217;-78
2024/02/13 22:24:15;;;;;;;1.63;1.50;;;;;;;;;;5155850;27;20225;-77
2024/02/13 22:26:42;;;;;;;1.63;1.43;;;;;;;;;;5156304;27;20219;-78
2024/02/13 22:29:10;;;;;;;2.47;1.70;;;;;;;;;;5156600;27;20611;-78
2024/02/13 22:31:37;;;;;;;1.87;1.40;;;;;;;;;;5156687;27;20202;-78
2024/02/13 22:34:07;;;;;;;2.50;1.77;;;;;;;;;;5161508;27;20182;-78
2024/02/13 22:36:36;;;;;;;2.93;2.20;;;;;;;;;;5169392;27;20207;-77
2024/02/13 22:39:03;;;;;;;5.27;3.30;;;;;;;;;;5168991;27;20187;-78
2024/02/13 22:41:30;;;;;;;6.53;3.93;;;;;;;;;;5167903;27;20856;-77
2024/02/13 22:43:57;;;;;;;4.27;2.90;;;;;;;;;;5165675;27;20600;-79
2024/02/13 22:46:28;;;;;;;7.93;2.80;;;;;;;;;;5164861;27;20270;-80
2024/02/13 22:48:56;;;;;;;8.40;3.40;;;;;;;;;;5155634;27;20247;-79
2024/02/13 22:51:27;;;;;;;4.57;3.20;;;;;;;;;;5155601;27;20288;-78
2024/02/13 22:53:59;;;;;;;9.97;5.00;;;;;;;;;;5156365;27;20175;-78
2024/02/13 22:56:26;;;;;;;4.47;3.10;;;;;;;;;;5156090;27;20246;-78
2024/02/13 22:58:55;;;;;;;3.77;3.10;;;;;;;;;;5155416;27;20211;-77
2024/02/13 23:01:23;;;;;;;5.00;3.10;;;;;;;;;;5155446;27;20246;-77
2024/02/13 23:03:50;;;;;;;3.67;3.00;;;;;;;;;;5154904;27;20206;-78
2024/02/13 23:06:18;;;;;;;5.63;3.70;;;;;;;;;;5155919;27;20237;-78
2024/02/13 23:08:47;;;;;;;3.07;2.57;;;;;;;;;;5155572;27;20631;-78
2024/02/13 23:11:17;;;;;;;6.50;4.37;;;;;;;;;;5155600;27;20258;-77
2024/02/13 23:13:45;;;;;;;13.50;6.83;;;;;;;;;;5155160;27;20407;-78
2024/02/13 23:16:16;;;;;;;16.93;7.73;;;;;;;;;;5155813;27;20245;-77
2024/02/13 23:18:43;;;;;;;10.47;6.40;;;;;;;;;;5155697;27;20606;-77
2024/02/13 23:21:11;;;;;;;9.43;6.43;;;;;;;;;;5155622;27;20558;-77
2024/02/13 23:23:41;;;;;;;10.50;6.47;;;;;;;;;;5155938;27;20195;-77
2024/02/13 23:26:09;;;;;;;11.47;8.37;;;;;;;;;;5156068;27;20606;-77
2024/02/13 23:28:51;;;;;;;18.33;9.63;;;;;;;;;;5155878;27;20268;-77
2024/02/13 23:31:18;;;;;;;12.53;7.77;;;;;;;;;;5156041;27;20205;-77
2024/02/13 23:33:47;;;;;;;9.73;6.67;;;;;;;;;;5155507;27;20210;-77
2024/02/13 23:36:16;;;;;;;13.83;9.00;;;;;;;;;;5155853;27;20217;-77
2024/02/13 23:38:47;;;;;;;22.40;13.00;;;;;;;;;;5155837;27;20202;-78
2024/02/13 23:41:14;;;;;;;18.63;9.73;;;;;;;;;;5155822;27;20250;-77
2024/02/13 23:43:42;;;;;;;15.00;8.90;;;;;;;;;;5155922;27;20218;-78
2024/02/13 23:46:10;;;;;;;12.77;7.13;;;;;;;;;;5155544;27;20218;-77
2024/02/13 23:48:38;;;;;;;14.37;7.57;;;;;;;;;;5155895;27;20203;-78
2024/02/13 23:51:05;;;;;;;19.47;9.87;;;;;;;;;;5155571;27;20213;-78
2024/02/13 23:53:33;;;;;;;17.17;9.63;;;;;;;;;;5155119;27;20226;-78
2024/02/13 23:56:01;;;;;;;12.63;7.47;;;;;;;;;;5155996;27;20253;-77
2024/02/13 23:58:28;;;;;;;11.30;5.03;;;;;;;;;;5155811;27;20198;-78
